createdAt,value
2022-12-12T00:00:34.395Z,5.40
2022-12-12T00:01:23.723Z,5.40
2022-12-12T00:01:58.222Z,5.40
2022-12-12T00:02:32.837Z,5.40
2022-12-12T00:03:07.896Z,5.50
2022-12-12T00:03:41.911Z,5.50
2022-12-12T00:04:17.654Z,5.50
2022-12-12T00:04:52.551Z,5.50
2022-12-12T00:05:28.531Z,5.50
2022-12-12T00:06:10.688Z,5.50
2022-12-12T00:06:45.507Z,5.50
2022-12-12T00:07:19.216Z,5.60
2022-12-12T00:07:53.379Z,5.60
2022-12-12T00:08:30.399Z,5.60
2022-12-12T00:09:05.127Z,5.60
2022-12-12T00:09:41.489Z,5.60
2022-12-12T00:10:15.938Z,5.70
2022-12-12T00:10:50.232Z,5.70
2022-12-12T00:11:27.213Z,5.70
2022-12-12T00:12:01.523Z,5.70
2022-12-12T00:12:36.270Z,5.70
2022-12-12T00:13:11.871Z,5.70
2022-12-12T00:13:47.220Z,5.70
2022-12-12T00:14:22.839Z,5.70
2022-12-12T00:14:56.588Z,5.80
2022-12-12T00:15:30.322Z,5.80
2022-12-12T00:16:07.424Z,5.80
2022-12-12T00:16:42.791Z,5.80
2022-12-12T00:17:18.313Z,5.80
2022-12-12T00:17:54.461Z,5.80
2022-12-12T00:18:28.427Z,5.80
2022-12-12T00:19:03.229Z,5.70
2022-12-12T00:19:39.077Z,5.70
2022-12-12T00:20:13.549Z,5.70
2022-12-12T00:20:59.391Z,5.70
2022-12-12T00:21:34.450Z,5.70
2022-12-12T00:22:20.702Z,5.70
2022-12-12T00:23:08.806Z,5.70
2022-12-12T00:23:47.451Z,5.60
2022-12-12T00:24:27.854Z,5.60
2022-12-12T00:25:03.326Z,5.60
2022-12-12T00:25:38.743Z,5.60
2022-12-12T00:26:20.097Z,5.70
2022-12-12T00:27:21.364Z,5.70
2022-12-12T00:27:56.621Z,5.70
2022-12-12T00:28:30.242Z,5.70
2022-12-12T00:29:06.564Z,5.70
2022-12-12T00:29:41.485Z,5.80
2022-12-12T00:30:17.219Z,5.80
2022-12-12T00:30:51.916Z,5.70
2022-12-12T00:31:26.786Z,5.70
2022-12-12T00:32:04.329Z,5.70
2022-12-12T00:32:38.102Z,5.70
2022-12-12T00:33:12.340Z,5.70
2022-12-12T00:33:49.758Z,5.70
2022-12-12T00:34:23.044Z,5.70
2022-12-12T00:34:57.457Z,5.60
2022-12-12T00:35:33.365Z,5.70
2022-12-12T00:36:07.784Z,5.70
2022-12-12T00:36:43.535Z,5.70
2022-12-12T00:37:18.510Z,5.70
2022-12-12T00:37:53.833Z,5.80
2022-12-12T00:38:29.509Z,5.70
2022-12-12T00:39:05.661Z,5.80
2022-12-12T00:39:40.718Z,5.80
2022-12-12T00:40:16.692Z,5.80
2022-12-12T00:41:25.060Z,5.80
2022-12-12T00:42:00.926Z,5.80
2022-12-12T00:42:36.375Z,5.90
2022-12-12T00:43:11.629Z,5.90
2022-12-12T00:43:47.066Z,5.90
2022-12-12T00:44:21.562Z,5.80
2022-12-12T00:44:54.856Z,5.80
2022-12-12T00:45:30.940Z,5.80
2022-12-12T00:46:04.947Z,5.80
2022-12-12T00:46:39.600Z,5.80
2022-12-12T00:47:13.913Z,5.80
2022-12-12T00:47:47.875Z,5.80
2022-12-12T00:48:23.399Z,5.80
2022-12-12T00:48:59.353Z,5.90
2022-12-12T00:49:34.631Z,5.90
2022-12-12T00:50:10.754Z,5.90
2022-12-12T00:50:46.083Z,5.90
2022-12-12T00:51:22.870Z,5.90
2022-12-12T00:51:56.744Z,5.90
2022-12-12T00:52:31.547Z,5.80
2022-12-12T00:53:06.680Z,5.90
2022-12-12T00:53:41.357Z,5.90
2022-12-12T00:54:16.398Z,5.90
2022-12-12T00:54:52.019Z,5.80
2022-12-12T00:55:27.902Z,5.80
2022-12-12T00:56:02.758Z,5.80
2022-12-12T00:56:37.029Z,5.90
2022-12-12T00:57:11.725Z,5.90
2022-12-12T00:57:46.303Z,5.90
2022-12-12T00:58:20.520Z,5.90
2022-12-12T00:58:55.641Z,5.90
2022-12-12T00:59:30.999Z,5.90
2022-12-12T01:00:05.998Z,5.90
2022-12-12T01:00:41.727Z,5.90
2022-12-12T01:01:19.411Z,5.90
2022-12-12T01:01:54.424Z,5.90
2022-12-12T01:02:28.675Z,5.90
2022-12-12T01:03:03.273Z,5.90
2022-12-12T01:03:41.149Z,5.90
2022-12-12T01:04:15.506Z,5.90
2022-12-12T01:04:51.346Z,5.90
2022-12-12T01:05:26.972Z,5.90
2022-12-12T01:06:02.304Z,5.90
2022-12-12T01:06:37.718Z,5.90
2022-12-12T01:07:12.926Z,6.00
2022-12-12T01:07:47.666Z,6.00
2022-12-12T01:08:23.580Z,6.00
2022-12-12T01:08:58.136Z,6.00
2022-12-12T01:09:35.262Z,6.00
2022-12-12T01:10:10.998Z,6.10
2022-12-12T01:10:45.318Z,6.00
2022-12-12T01:11:20.651Z,6.00
2022-12-12T01:11:55.973Z,6.10
2022-12-12T01:12:30.806Z,6.10
2022-12-12T01:13:06.723Z,6.10
2022-12-12T01:13:41.626Z,6.10
2022-12-12T01:14:16.452Z,6.10
2022-12-12T01:14:51.332Z,6.20
2022-12-12T01:15:27.521Z,6.20
2022-12-12T01:16:02.723Z,6.20
2022-12-12T01:16:36.678Z,6.10
2022-12-12T01:17:11.068Z,6.10
2022-12-12T01:17:46.279Z,6.10
2022-12-12T01:18:21.316Z,6.10
2022-12-12T01:18:56.314Z,6.10
2022-12-12T01:19:32.005Z,6.10
2022-12-12T01:20:09.238Z,6.10
2022-12-12T01:20:43.432Z,6.10
2022-12-12T01:21:19.715Z,6.10
2022-12-12T01:21:53.568Z,6.10
2022-12-12T01:22:27.592Z,6.10
2022-12-12T01:23:03.709Z,6.10
2022-12-12T01:23:37.894Z,6.10
2022-12-12T01:24:12.224Z,6.10
2022-12-12T01:24:50.700Z,6.10
2022-12-12T01:25:25.542Z,6.10
2022-12-12T01:26:05.392Z,6.10
2022-12-12T01:26:41.440Z,6.10
2022-12-12T01:27:16.235Z,6.10
2022-12-12T01:27:50.337Z,6.10
2022-12-12T01:28:29.106Z,6.10
2022-12-12T01:29:03.646Z,6.10
2022-12-12T01:30:03.527Z,6.00
2022-12-12T01:30:37.660Z,6.00
2022-12-12T01:31:13.243Z,6.00
2022-12-12T01:31:57.581Z,6.00
2022-12-12T01:32:32.203Z,6.10
2022-12-12T01:33:10.094Z,6.10
2022-12-12T01:33:47.649Z,6.10
2022-12-12T01:34:22.483Z,6.10
2022-12-12T01:34:56.768Z,6.10
2022-12-12T01:35:33.199Z,6.10
2022-12-12T01:36:07.893Z,6.10
2022-12-12T01:36:43.179Z,6.10
2022-12-12T01:37:18.056Z,6.10
2022-12-12T01:37:52.988Z,6.10
2022-12-12T01:38:26.935Z,6.10
2022-12-12T01:39:02.406Z,6.10
2022-12-12T01:39:36.700Z,6.10
2022-12-12T01:40:15.765Z,6.10
2022-12-12T01:40:52.181Z,6.10
2022-12-12T01:41:30.589Z,6.10
2022-12-12T01:42:05.418Z,6.10
2022-12-12T01:42:40.787Z,6.10
2022-12-12T01:43:16.754Z,6.10
2022-12-12T01:43:51.611Z,6.10
2022-12-12T01:44:43.698Z,6.10
2022-12-12T01:45:57.265Z,6.10
2022-12-12T01:46:45.072Z,6.10
2022-12-12T01:47:22.593Z,6.10
2022-12-12T01:48:01.921Z,6.10
2022-12-12T01:48:44.227Z,6.10
2022-12-12T01:49:21.936Z,6.10
2022-12-12T01:50:00.499Z,6.10
2022-12-12T01:50:36.541Z,6.10
2022-12-12T01:51:15.593Z,6.20
2022-12-12T01:51:53.345Z,6.20
2022-12-12T01:52:31.800Z,6.20
2022-12-12T01:53:06.904Z,6.20
2022-12-12T01:53:42.470Z,6.20
2022-12-12T01:54:20.947Z,6.20
2022-12-12T01:54:58.674Z,6.20
2022-12-12T01:55:35.784Z,6.20
2022-12-12T01:56:15.053Z,6.20
2022-12-12T01:56:57.522Z,6.20
2022-12-12T01:57:37.765Z,6.20
2022-12-12T01:58:13.073Z,6.20
2022-12-12T01:58:50.252Z,6.20
2022-12-12T01:59:26.931Z,6.20
2022-12-12T02:00:03.898Z,6.20
2022-12-12T02:00:38.759Z,6.20
2022-12-12T02:01:18.114Z,6.20
2022-12-12T02:01:52.375Z,6.20
2022-12-12T02:02:27.293Z,6.20
2022-12-12T02:03:04.359Z,6.20
2022-12-12T02:03:40.213Z,6.10
2022-12-12T02:04:15.510Z,6.10
2022-12-12T02:04:50.144Z,6.10
2022-12-12T02:05:33.233Z,6.10
2022-12-12T02:06:09.869Z,6.10
2022-12-12T02:06:44.638Z,6.10
2022-12-12T02:07:20.013Z,6.10
2022-12-12T02:07:54.401Z,6.10
2022-12-12T02:08:30.583Z,6.10
2022-12-12T02:09:08.930Z,6.10
2022-12-12T02:09:43.316Z,6.10
2022-12-12T02:10:18.562Z,6.10
2022-12-12T02:10:53.846Z,6.10
2022-12-12T02:11:29.249Z,6.10
2022-12-12T02:12:04.568Z,6.10
2022-12-12T02:12:38.905Z,6.10
2022-12-12T02:13:21.283Z,6.10
2022-12-12T02:13:57.370Z,6.10
2022-12-12T02:14:37.003Z,6.10
2022-12-12T02:15:13.221Z,6.10
2022-12-12T02:16:00.155Z,6.10
2022-12-12T02:16:49.418Z,6.20
2022-12-12T02:17:52.463Z,6.10
2022-12-12T02:18:40.831Z,6.10
2022-12-12T02:19:58.902Z,6.00
2022-12-12T02:20:56.852Z,6.10
2022-12-12T02:21:39.222Z,6.10
2022-12-12T02:22:28.240Z,6.10
2022-12-12T02:23:29.214Z,6.10
2022-12-12T02:24:40.099Z,6.10
2022-12-12T02:25:48.256Z,6.10
2022-12-12T02:27:08.593Z,6.10
2022-12-12T02:28:13.105Z,6.20
2022-12-12T02:29:26.466Z,6.20
2022-12-12T02:30:12.787Z,6.20
2022-12-12T02:30:59.146Z,6.20
2022-12-12T02:31:39.155Z,6.10
2022-12-12T02:32:22.514Z,6.20
2022-12-12T02:33:22.301Z,6.20
2022-12-12T02:34:02.450Z,6.20
2022-12-12T02:34:50.266Z,6.20
2022-12-12T02:35:36.426Z,6.10
2022-12-12T02:36:18.572Z,6.10
2022-12-12T02:37:03.631Z,6.10
2022-12-12T02:37:43.352Z,6.10
2022-12-12T02:38:29.468Z,6.10
2022-12-12T02:39:11.538Z,6.10
2022-12-12T02:39:56.828Z,6.10
2022-12-12T02:40:38.032Z,6.10
2022-12-12T02:41:22.667Z,6.10
2022-12-12T02:42:04.380Z,6.10
2022-12-12T02:42:44.430Z,6.20
2022-12-12T02:43:31.698Z,6.20
2022-12-12T02:44:17.564Z,6.20
2022-12-12T02:44:59.523Z,6.20
2022-12-12T02:45:39.476Z,6.10
2022-12-12T02:46:22.603Z,6.10
2022-12-12T02:47:01.155Z,6.10
2022-12-12T02:47:40.204Z,6.10
2022-12-12T02:48:22.490Z,6.10
2022-12-12T02:49:01.215Z,6.10
2022-12-12T02:49:42.169Z,6.10
2022-12-12T02:50:18.980Z,6.10
2022-12-12T02:50:54.933Z,6.10
2022-12-12T02:51:32.666Z,6.10
2022-12-12T02:52:07.987Z,6.10
2022-12-12T02:52:45.318Z,6.10
2022-12-12T02:53:20.333Z,6.10
2022-12-12T02:53:56.835Z,6.10
2022-12-12T02:54:30.950Z,6.10
2022-12-12T02:55:05.456Z,6.10
2022-12-12T02:55:40.258Z,6.10
2022-12-12T02:56:47.091Z,6.10
2022-12-12T02:57:24.774Z,6.20
2022-12-12T02:57:59.325Z,6.20
2022-12-12T02:58:34.654Z,6.20
2022-12-12T02:59:10.190Z,6.20
2022-12-12T02:59:48.593Z,6.20
2022-12-12T03:00:24.065Z,6.20
2022-12-12T03:01:11.448Z,6.20
2022-12-12T03:02:06.553Z,6.10
2022-12-12T03:03:19.150Z,6.10
2022-12-12T03:04:17.770Z,6.10
2022-12-12T03:05:24.919Z,6.10
2022-12-12T03:06:48.377Z,6.10
2022-12-12T03:07:49.023Z,6.20
2022-12-12T03:08:46.501Z,6.20
2022-12-12T03:09:32.947Z,6.20
2022-12-12T03:10:18.917Z,6.20
2022-12-12T03:10:58.386Z,6.20
2022-12-12T03:11:43.677Z,6.20
2022-12-12T03:12:24.454Z,6.10
2022-12-12T03:13:06.949Z,6.10
2022-12-12T03:13:48.787Z,6.20
2022-12-12T03:14:27.850Z,6.20
2022-12-12T03:15:08.018Z,6.20
2022-12-12T03:15:53.790Z,6.20
2022-12-12T03:16:30.950Z,6.20
2022-12-12T03:17:12.592Z,6.20
2022-12-12T03:17:57.352Z,6.10
2022-12-12T03:18:38.703Z,6.10
2022-12-12T03:19:20.680Z,6.10
2022-12-12T03:20:01.205Z,6.20
2022-12-12T03:20:39.116Z,6.20
2022-12-12T03:21:18.074Z,6.20
2022-12-12T03:21:55.798Z,6.20
2022-12-12T03:22:35.883Z,6.20
2022-12-12T03:23:16.330Z,6.10
2022-12-12T03:23:55.645Z,6.20
2022-12-12T03:24:34.523Z,6.20
2022-12-12T03:25:15.816Z,6.20
2022-12-12T03:25:58.917Z,6.20
2022-12-12T03:26:37.181Z,6.20
2022-12-12T03:27:17.426Z,6.20
2022-12-12T03:27:58.071Z,6.20
2022-12-12T03:28:37.798Z,6.20
2022-12-12T03:29:16.026Z,6.20
2022-12-12T03:29:57.372Z,6.20
2022-12-12T03:30:37.113Z,6.20
2022-12-12T03:31:12.318Z,6.30
2022-12-12T03:31:55.788Z,6.20
2022-12-12T03:32:37.874Z,6.20
2022-12-12T03:33:20.396Z,6.20
2022-12-12T03:33:59.661Z,6.30
2022-12-12T03:34:38.979Z,6.20
2022-12-12T03:35:19.260Z,6.30
2022-12-12T03:35:56.162Z,6.30
2022-12-12T03:36:39.723Z,6.30
2022-12-12T03:37:19.252Z,6.30
2022-12-12T03:37:57.457Z,6.30
2022-12-12T03:38:37.665Z,6.30
2022-12-12T03:39:20.676Z,6.30
2022-12-12T03:39:58.988Z,6.30
2022-12-12T03:40:42.212Z,6.30
2022-12-12T03:41:20.367Z,6.30
2022-12-12T03:42:03.822Z,6.30
2022-12-12T03:42:45.212Z,6.30
2022-12-12T03:43:22.939Z,6.30
2022-12-12T03:44:03.650Z,6.30
2022-12-12T03:44:44.517Z,6.30
2022-12-12T03:45:26.963Z,6.30
2022-12-12T03:46:11.810Z,6.30
2022-12-12T03:46:49.431Z,6.30
2022-12-12T03:47:28.056Z,6.30
2022-12-12T03:48:11.333Z,6.30
2022-12-12T03:48:48.590Z,6.30
2022-12-12T03:49:28.026Z,6.30
2022-12-12T03:50:08.677Z,6.30
2022-12-12T03:50:45.848Z,6.30
2022-12-12T03:51:27.504Z,6.40
2022-12-12T03:52:07.951Z,6.40
2022-12-12T03:52:47.304Z,6.40
2022-12-12T03:53:29.014Z,6.40
2022-12-12T03:54:10.353Z,6.40
2022-12-12T03:54:50.193Z,6.40
2022-12-12T03:55:29.579Z,6.40
2022-12-12T03:56:09.616Z,6.40
2022-12-12T03:56:48.743Z,6.40
2022-12-12T03:57:27.615Z,6.40
2022-12-12T03:58:11.470Z,6.40
2022-12-12T03:58:51.543Z,6.50
2022-12-12T03:59:32.570Z,6.50
2022-12-12T04:00:08.664Z,6.50
2022-12-12T04:00:55.550Z,6.50
2022-12-12T04:01:37.795Z,6.50
2022-12-12T04:02:17.879Z,6.40
2022-12-12T04:02:58.436Z,6.40
2022-12-12T04:03:41.582Z,6.40
2022-12-12T04:04:21.102Z,6.40
2022-12-12T04:05:02.155Z,6.40
2022-12-12T04:06:03.751Z,6.30
2022-12-12T04:06:40.869Z,6.40
2022-12-12T04:07:19.774Z,6.40
2022-12-12T04:07:58.323Z,6.30
2022-12-12T04:08:35.919Z,6.30
2022-12-12T04:09:32.127Z,6.40
2022-12-12T04:10:24.797Z,6.30
2022-12-12T04:11:24.422Z,6.30
2022-12-12T04:12:23.778Z,6.30
2022-12-12T04:13:07.007Z,6.30
2022-12-12T04:13:51.614Z,6.30
2022-12-12T04:14:42.443Z,6.40
2022-12-12T04:15:46.952Z,6.40
2022-12-12T04:16:27.755Z,6.30
2022-12-12T04:17:05.958Z,6.30
2022-12-12T04:17:44.170Z,6.30
2022-12-12T04:18:25.919Z,6.20
2022-12-12T04:19:09.913Z,6.20
2022-12-12T04:20:07.857Z,6.20
2022-12-12T04:21:04.201Z,6.20
2022-12-12T04:22:01.631Z,6.20
2022-12-12T04:22:59.730Z,6.10
2022-12-12T04:23:38.940Z,6.10
2022-12-12T04:24:23.072Z,6.20
2022-12-12T04:25:03.097Z,6.10
2022-12-12T04:25:59.946Z,6.20
2022-12-12T04:26:41.298Z,6.20
2022-12-12T04:27:26.677Z,6.20
2022-12-12T04:28:06.256Z,6.20
2022-12-12T04:28:45.235Z,6.20
2022-12-12T04:29:30.987Z,6.20
2022-12-12T04:30:09.040Z,6.20
2022-12-12T04:30:44.711Z,6.20
2022-12-12T04:31:21.308Z,6.20
2022-12-12T04:32:01.500Z,6.20
2022-12-12T04:32:41.546Z,6.20
2022-12-12T04:33:20.067Z,6.20
2022-12-12T04:33:58.991Z,6.20
2022-12-12T04:34:40.654Z,6.20
2022-12-12T04:35:19.716Z,6.20
2022-12-12T04:35:55.134Z,6.20
2022-12-12T04:36:33.982Z,6.20
2022-12-12T04:37:12.197Z,6.20
2022-12-12T04:37:50.769Z,6.20
2022-12-12T04:38:26.604Z,6.20
2022-12-12T04:39:03.819Z,6.20
2022-12-12T04:39:41.683Z,6.20
2022-12-12T04:40:21.037Z,6.20
2022-12-12T04:40:58.571Z,6.20
2022-12-12T04:41:36.916Z,6.20
2022-12-12T04:42:16.564Z,6.20
2022-12-12T04:43:09.221Z,6.30
2022-12-12T04:43:44.444Z,6.30
2022-12-12T04:44:22.208Z,6.20
2022-12-12T04:45:02.820Z,6.20
2022-12-12T04:45:41.679Z,6.20
2022-12-12T04:46:19.201Z,6.20
2022-12-12T04:46:57.025Z,6.20
2022-12-12T04:47:32.794Z,6.20
2022-12-12T04:48:12.059Z,6.20
2022-12-12T04:48:53.560Z,6.20
2022-12-12T04:49:32.137Z,6.20
2022-12-12T04:50:10.967Z,6.30
2022-12-12T04:50:49.595Z,6.30
2022-12-12T04:51:28.126Z,6.30
2022-12-12T04:52:06.286Z,6.30
2022-12-12T04:52:44.430Z,6.30
2022-12-12T04:53:24.201Z,6.30
2022-12-12T04:54:09.022Z,6.30
2022-12-12T04:54:48.475Z,6.30
2022-12-12T04:55:27.753Z,6.30
2022-12-12T04:56:10.321Z,6.30
2022-12-12T04:56:47.179Z,6.30
2022-12-12T04:57:28.402Z,6.30
2022-12-12T04:58:03.948Z,6.30
2022-12-12T04:58:39.735Z,6.30
2022-12-12T04:59:14.726Z,6.30
2022-12-12T04:59:50.877Z,6.30
2022-12-12T05:00:28.397Z,6.30
2022-12-12T05:01:09.535Z,6.30
2022-12-12T05:01:53.156Z,6.30
2022-12-12T05:02:35.565Z,6.30
2022-12-12T05:03:17.282Z,6.30
2022-12-12T05:03:55.515Z,6.30
2022-12-12T05:04:37.543Z,6.30
2022-12-12T05:05:19.065Z,6.30
2022-12-12T05:05:59.948Z,6.30
2022-12-12T05:06:43.770Z,6.30
2022-12-12T05:07:24.358Z,6.30
2022-12-12T05:08:02.428Z,6.30
2022-12-12T05:08:39.204Z,6.30
2022-12-12T05:09:15.286Z,6.30
2022-12-12T05:09:51.187Z,6.20
2022-12-12T05:10:26.877Z,6.20
2022-12-12T05:11:03.501Z,6.20
2022-12-12T05:11:37.188Z,6.20
2022-12-12T05:12:16.630Z,6.20
2022-12-12T05:12:53.049Z,6.20
2022-12-12T05:13:31.557Z,6.20
2022-12-12T05:14:09.347Z,6.20
2022-12-12T05:14:45.445Z,6.30
2022-12-12T05:15:21.749Z,6.30
2022-12-12T05:15:58.916Z,6.30
2022-12-12T05:16:38.752Z,6.30
2022-12-12T05:17:18.171Z,6.30
2022-12-12T05:17:57.351Z,6.30
2022-12-12T05:18:33.585Z,6.30
2022-12-12T05:19:07.338Z,6.30
2022-12-12T05:19:42.596Z,6.30
2022-12-12T05:20:18.785Z,6.30
2022-12-12T05:20:52.806Z,6.30
2022-12-12T05:21:27.032Z,6.30
2022-12-12T05:22:02.276Z,6.30
2022-12-12T05:22:37.135Z,6.30
2022-12-12T05:23:13.531Z,6.30
2022-12-12T05:23:48.708Z,6.30
2022-12-12T05:24:24.682Z,6.30
2022-12-12T05:25:00.171Z,6.30
2022-12-12T05:25:33.946Z,6.30
2022-12-12T05:26:10.752Z,6.30
2022-12-12T05:26:46.141Z,6.30
2022-12-12T05:27:21.978Z,6.30
2022-12-12T05:27:56.798Z,6.30
2022-12-12T05:28:32.452Z,6.30
2022-12-12T05:29:08.471Z,6.30
2022-12-12T05:29:42.414Z,6.30
2022-12-12T05:30:18.719Z,6.30
2022-12-12T05:30:53.741Z,6.30
2022-12-12T05:31:33.968Z,6.30
2022-12-12T05:32:09.822Z,6.30
2022-12-12T05:32:44.921Z,6.30
2022-12-12T05:33:19.759Z,6.30
2022-12-12T05:33:57.755Z,6.30
2022-12-12T05:34:32.130Z,6.30
2022-12-12T05:35:11.355Z,6.30
2022-12-12T05:35:47.959Z,6.30
2022-12-12T05:36:25.181Z,6.30
2022-12-12T05:37:04.392Z,6.30
2022-12-12T05:37:38.581Z,6.30
2022-12-12T05:38:13.908Z,6.30
2022-12-12T05:38:52.475Z,6.30
2022-12-12T05:39:30.198Z,6.30
2022-12-12T05:40:08.872Z,6.30
2022-12-12T05:40:43.520Z,6.30
2022-12-12T05:41:22.054Z,6.30
2022-12-12T05:41:57.798Z,6.30
2022-12-12T05:42:32.910Z,6.30
2022-12-12T05:43:07.823Z,6.30
2022-12-12T05:43:44.343Z,6.30
2022-12-12T05:44:19.992Z,6.30
2022-12-12T05:44:54.239Z,6.30
2022-12-12T05:45:28.507Z,6.30
2022-12-12T05:46:08.089Z,6.30
2022-12-12T05:46:43.179Z,6.30
2022-12-12T05:47:19.457Z,6.30
2022-12-12T05:47:58.626Z,6.30
2022-12-12T05:48:32.455Z,6.40
2022-12-12T05:49:07.200Z,6.40
2022-12-12T05:49:42.289Z,6.30
2022-12-12T05:50:17.939Z,6.30
2022-12-12T05:50:54.013Z,6.30
2022-12-12T05:51:34.378Z,6.30
2022-12-12T05:52:10.842Z,6.30
2022-12-12T05:52:46.567Z,6.40
2022-12-12T05:53:21.815Z,6.40
2022-12-12T05:53:58.283Z,6.40
2022-12-12T05:54:34.358Z,6.40
2022-12-12T05:55:10.800Z,6.30
2022-12-12T05:55:50.440Z,6.30
2022-12-12T05:56:23.696Z,6.30
2022-12-12T05:56:58.230Z,6.30
2022-12-12T05:57:33.597Z,6.30
2022-12-12T05:58:07.830Z,6.30
2022-12-12T05:58:44.991Z,6.30
2022-12-12T05:59:19.343Z,6.30
2022-12-12T05:59:59.048Z,6.30
2022-12-12T06:00:33.904Z,6.30
2022-12-12T06:01:10.347Z,6.30
2022-12-12T06:01:45.191Z,6.30
2022-12-12T06:02:21.956Z,6.30
2022-12-12T06:02:57.521Z,6.30
2022-12-12T06:03:35.012Z,6.30
2022-12-12T06:04:13.301Z,6.30
2022-12-12T06:04:48.213Z,6.30
2022-12-12T06:05:23.090Z,6.40
2022-12-12T06:06:00.372Z,6.30
2022-12-12T06:06:35.470Z,6.30
2022-12-12T06:07:11.156Z,6.30
2022-12-12T06:07:47.360Z,6.30
2022-12-12T06:08:25.155Z,6.30
2022-12-12T06:09:03.879Z,6.30
2022-12-12T06:09:39.375Z,6.30
2022-12-12T06:10:14.841Z,6.30
2022-12-12T06:10:56.687Z,6.20
2022-12-12T06:11:31.086Z,6.20
2022-12-12T06:12:10.679Z,6.20
2022-12-12T06:12:44.004Z,6.20
2022-12-12T06:13:19.312Z,6.20
2022-12-12T06:13:54.132Z,6.20
2022-12-12T06:14:30.636Z,6.20
2022-12-12T06:15:06.140Z,6.20
2022-12-12T06:15:41.707Z,6.20
2022-12-12T06:16:19.306Z,6.20
2022-12-12T06:16:54.781Z,6.20
2022-12-12T06:17:33.293Z,6.20
2022-12-12T06:18:09.775Z,6.20
2022-12-12T06:18:45.201Z,6.20
2022-12-12T06:19:20.188Z,6.30
2022-12-12T06:19:56.555Z,6.30
2022-12-12T06:20:31.525Z,6.30
2022-12-12T06:21:10.140Z,6.30
2022-12-12T06:21:45.279Z,6.30
2022-12-12T06:22:20.553Z,6.30
2022-12-12T06:22:54.426Z,6.30
2022-12-12T06:23:29.707Z,6.30
2022-12-12T06:24:05.654Z,6.30
2022-12-12T06:24:40.952Z,6.30
2022-12-12T06:25:17.757Z,6.30
2022-12-12T06:25:51.736Z,6.30
2022-12-12T06:26:26.245Z,6.30
2022-12-12T06:27:01.785Z,6.30
2022-12-12T06:27:36.538Z,6.30
2022-12-12T06:28:13.021Z,6.30
2022-12-12T06:28:47.961Z,6.30
2022-12-12T06:29:23.407Z,6.40
2022-12-12T06:29:57.819Z,6.40
2022-12-12T06:30:34.894Z,6.40
2022-12-12T06:31:12.135Z,6.40
2022-12-12T06:31:48.185Z,6.40
2022-12-12T06:32:22.501Z,6.30
2022-12-12T06:32:58.380Z,6.30
2022-12-12T06:33:35.995Z,6.30
2022-12-12T06:34:12.293Z,6.30
2022-12-12T06:34:46.118Z,6.30
2022-12-12T06:35:21.120Z,6.30
2022-12-12T06:36:03.175Z,6.30
2022-12-12T06:36:39.380Z,6.30
2022-12-12T06:37:17.161Z,6.20
2022-12-12T06:37:52.479Z,6.20
2022-12-12T06:38:26.798Z,6.20
2022-12-12T06:39:03.298Z,6.30
2022-12-12T06:39:39.062Z,6.30
2022-12-12T06:40:15.549Z,6.30
2022-12-12T06:40:51.617Z,6.20
2022-12-12T06:41:27.852Z,6.20
2022-12-12T06:42:03.478Z,6.20
2022-12-12T06:42:41.928Z,6.20
2022-12-12T06:43:20.504Z,6.20
2022-12-12T06:43:55.185Z,6.20
2022-12-12T06:44:31.276Z,6.20
2022-12-12T06:45:08.342Z,6.20
2022-12-12T06:45:43.245Z,6.20
2022-12-12T06:46:21.024Z,6.20
2022-12-12T06:46:55.530Z,6.20
2022-12-12T06:47:29.277Z,6.20
2022-12-12T06:48:05.333Z,6.20
2022-12-12T06:48:40.206Z,6.20
2022-12-12T06:49:15.103Z,6.20
2022-12-12T06:49:49.484Z,6.20
2022-12-12T06:50:24.085Z,6.20
2022-12-12T06:50:59.430Z,6.20
2022-12-12T06:51:34.346Z,6.20
2022-12-12T06:52:12.248Z,6.20
2022-12-12T06:52:47.052Z,6.20
2022-12-12T06:53:21.949Z,6.20
2022-12-12T06:54:00.612Z,6.20
2022-12-12T06:54:34.870Z,6.20
2022-12-12T06:55:12.638Z,6.20
2022-12-12T06:55:47.749Z,6.20
2022-12-12T06:56:25.635Z,6.20
2022-12-12T06:57:00.044Z,6.20
2022-12-12T06:57:40.282Z,6.20
2022-12-12T06:58:15.181Z,6.20
2022-12-12T06:58:49.860Z,6.20
2022-12-12T06:59:25.977Z,6.20
2022-12-12T07:00:00.488Z,6.20
2022-12-12T07:00:35.505Z,6.20
2022-12-12T07:01:11.677Z,6.20
2022-12-12T07:01:47.637Z,6.20
2022-12-12T07:02:30.074Z,6.20
2022-12-12T07:03:11.855Z,6.20
2022-12-12T07:03:46.027Z,6.20
2022-12-12T07:04:21.648Z,6.20
2022-12-12T07:04:56.428Z,6.30
2022-12-12T07:05:31.478Z,6.20
2022-12-12T07:06:10.967Z,6.20
2022-12-12T07:07:04.770Z,6.30
2022-12-12T07:07:44.857Z,6.30
2022-12-12T07:08:19.875Z,6.30
2022-12-12T07:08:56.502Z,6.30
2022-12-12T07:09:30.885Z,6.30
2022-12-12T07:10:11.316Z,6.20
2022-12-12T07:10:47.410Z,6.20
2022-12-12T07:11:26.606Z,6.20
2022-12-12T07:12:01.523Z,6.20
2022-12-12T07:12:38.867Z,6.20
2022-12-12T07:13:14.450Z,6.20
2022-12-12T07:13:48.928Z,6.20
2022-12-12T07:14:25.653Z,6.20
2022-12-12T07:15:01.051Z,6.20
2022-12-12T07:15:42.677Z,6.20
2022-12-12T07:16:17.765Z,6.20
2022-12-12T07:16:52.385Z,6.30
2022-12-12T07:17:27.537Z,6.30
2022-12-12T07:18:02.386Z,6.30
2022-12-12T07:18:38.315Z,6.30
2022-12-12T07:19:13.193Z,6.30
2022-12-12T07:19:48.397Z,6.30
2022-12-12T07:20:22.923Z,6.30
2022-12-12T07:20:57.445Z,6.30
2022-12-12T07:21:32.423Z,6.30
2022-12-12T07:22:10.014Z,6.30
2022-12-12T07:22:48.695Z,6.30
2022-12-12T07:23:23.018Z,6.30
2022-12-12T07:23:58.292Z,6.30
2022-12-12T07:24:32.599Z,6.30
2022-12-12T07:25:10.840Z,6.30
2022-12-12T07:25:46.771Z,6.30
2022-12-12T07:26:24.056Z,6.30
2022-12-12T07:26:58.954Z,6.30
2022-12-12T07:27:35.122Z,6.30
2022-12-12T07:28:10.788Z,6.20
2022-12-12T07:28:44.645Z,6.20
2022-12-12T07:29:21.192Z,6.30
2022-12-12T07:29:56.105Z,6.20
2022-12-12T07:30:30.977Z,6.30
2022-12-12T07:31:08.601Z,6.30
2022-12-12T07:31:44.560Z,6.30
2022-12-12T07:32:19.530Z,6.30
2022-12-12T07:32:55.370Z,6.30
2022-12-12T07:33:41.020Z,6.30
2022-12-12T07:34:18.240Z,6.30
2022-12-12T07:34:54.182Z,6.30
2022-12-12T07:35:30.055Z,6.30
2022-12-12T07:36:06.512Z,6.30
2022-12-12T07:36:43.065Z,6.20
2022-12-12T07:37:18.040Z,6.20
2022-12-12T07:37:57.298Z,6.10
2022-12-12T07:38:32.429Z,6.10
2022-12-12T07:39:07.303Z,6.10
2022-12-12T07:39:42.133Z,6.10
2022-12-12T07:40:18.852Z,6.10
2022-12-12T07:40:53.436Z,6.20
2022-12-12T07:41:28.226Z,6.20
2022-12-12T07:42:02.372Z,6.20
2022-12-12T07:42:37.678Z,6.20
2022-12-12T07:43:12.824Z,6.20
2022-12-12T07:43:46.605Z,6.20
2022-12-12T07:44:22.054Z,6.20
2022-12-12T07:44:56.442Z,6.20
2022-12-12T07:45:32.770Z,6.30
2022-12-12T07:46:11.721Z,6.30
2022-12-12T07:46:52.503Z,6.30
2022-12-12T07:47:26.525Z,6.30
2022-12-12T07:48:24.459Z,6.30
2022-12-12T07:49:00.066Z,6.30
2022-12-12T07:49:38.312Z,6.20
2022-12-12T07:50:15.994Z,6.20
2022-12-12T07:50:50.937Z,6.20
2022-12-12T07:51:28.616Z,6.20
2022-12-12T07:52:35.148Z,6.20
2022-12-12T07:53:12.383Z,6.20
2022-12-12T07:53:48.384Z,6.20
2022-12-12T07:54:26.456Z,6.20
2022-12-12T07:55:03.250Z,6.10
2022-12-12T07:55:41.027Z,6.10
2022-12-12T07:56:17.059Z,6.10
2022-12-12T07:56:52.638Z,6.10
2022-12-12T07:57:27.717Z,6.10
2022-12-12T07:58:02.190Z,6.10
2022-12-12T07:58:39.350Z,6.10
2022-12-12T07:59:14.491Z,6.20
2022-12-12T07:59:50.374Z,6.20
2022-12-12T08:00:28.506Z,6.20
2022-12-12T08:01:14.404Z,6.20
2022-12-12T08:01:50.512Z,6.20
2022-12-12T08:02:25.999Z,6.10
2022-12-12T08:02:59.941Z,6.10
2022-12-12T08:03:34.868Z,6.10
2022-12-12T08:04:09.837Z,6.10
2022-12-12T08:04:44.172Z,6.10
2022-12-12T08:05:19.763Z,6.20
2022-12-12T08:05:54.696Z,6.10
2022-12-12T08:06:31.016Z,6.10
2022-12-12T08:07:08.436Z,6.10
2022-12-12T08:07:44.684Z,6.20
2022-12-12T08:08:20.825Z,6.20
2022-12-12T08:08:55.119Z,6.20
2022-12-12T08:09:29.388Z,6.20
2022-12-12T08:10:04.659Z,6.20
2022-12-12T08:10:42.156Z,6.30
2022-12-12T08:11:18.542Z,6.30
2022-12-12T08:11:56.396Z,6.30
2022-12-12T08:12:32.041Z,6.30
2022-12-12T08:13:07.763Z,6.30
2022-12-12T08:13:42.336Z,6.30
2022-12-12T08:14:17.507Z,6.30
2022-12-12T08:14:52.309Z,6.30
2022-12-12T08:15:26.956Z,6.30
2022-12-12T08:16:01.189Z,6.30
2022-12-12T08:16:36.594Z,6.30
2022-12-12T08:17:10.899Z,6.30
2022-12-12T08:17:46.068Z,6.30
2022-12-12T08:18:21.450Z,6.30
2022-12-12T08:18:57.330Z,6.40
2022-12-12T08:19:32.764Z,6.40
2022-12-12T08:20:10.117Z,6.40
2022-12-12T08:20:45.488Z,6.30
2022-12-12T08:21:25.410Z,6.30
2022-12-12T08:22:00.517Z,6.30
2022-12-12T08:22:36.405Z,6.40
2022-12-12T08:23:11.932Z,6.30
2022-12-12T08:23:50.417Z,6.30
2022-12-12T08:24:25.076Z,6.30
2022-12-12T08:25:00.853Z,6.30
2022-12-12T08:25:37.382Z,6.30
2022-12-12T08:26:14.314Z,6.30
2022-12-12T08:26:50.864Z,6.30
2022-12-12T08:27:27.467Z,6.30
2022-12-12T08:28:02.353Z,6.30
2022-12-12T08:28:38.009Z,6.30
2022-12-12T08:29:12.632Z,6.30
2022-12-12T08:29:48.533Z,6.30
2022-12-12T08:30:23.446Z,6.30
2022-12-12T08:30:58.751Z,6.30
2022-12-12T08:31:33.711Z,6.30
2022-12-12T08:32:09.638Z,6.30
2022-12-12T08:32:43.966Z,6.30